sensor_id;sensor_type;location;lat;lon;timestamp;P1;durP1;ratioP1;P2;durP2;ratioP2
54641;SDS011;40536;53.194;5.728;2022-12-29T00:02:11;421.60;;;398.40;;
54641;SDS011;40536;53.194;5.728;2022-12-29T00:04:38;266.38;;;254.18;;
54641;SDS011;40536;53.194;5.728;2022-12-29T00:07:04;355.70;;;338.63;;
54641;SDS011;40536;53.194;5.728;2022-12-29T00:09:30;365.55;;;347.83;;
54641;SDS011;40536;53.194;5.728;2022-12-29T00:11:59;677.70;;;623.58;;
54641;SDS011;40536;53.194;5.728;2022-12-29T00:14:32;353.33;;;337.42;;
54641;SDS011;40536;53.194;5.728;2022-12-29T00:17:24;388.60;;;368.58;;
54641;SDS011;40536;53.194;5.728;2022-12-29T00:19:52;385.15;;;367.17;;
54641;SDS011;40536;53.194;5.728;2022-12-29T00:22:37;547.03;;;514.10;;
54641;SDS011;40536;53.194;5.728;2022-12-29T00:25:24;356.08;;;339.75;;
54641;SDS011;40536;53.194;5.728;2022-12-29T00:28:09;585.45;;;542.05;;
54641;SDS011;40536;53.194;5.728;2022-12-29T00:31:01;515.08;;;486.27;;
54641;SDS011;40536;53.194;5.728;2022-12-29T00:33:56;424.05;;;403.88;;
54641;SDS011;40536;53.194;5.728;2022-12-29T00:36:40;588.35;;;552.95;;
54641;SDS011;40536;53.194;5.728;2022-12-29T00:39:08;342.55;;;326.15;;
54641;SDS011;40536;53.194;5.728;2022-12-29T00:41:56;453.88;;;431.35;;
54641;SDS011;40536;53.194;5.728;2022-12-29T00:44:49;385.38;;;367.60;;
54641;SDS011;40536;53.194;5.728;2022-12-29T00:47:17;381.15;;;363.35;;
54641;SDS011;40536;53.194;5.728;2022-12-29T00:49:42;433.33;;;412.85;;
54641;SDS011;40536;53.194;5.728;2022-12-29T00:52:09;425.90;;;405.15;;
54641;SDS011;40536;53.194;5.728;2022-12-29T00:54:37;480.85;;;455.42;;
54641;SDS011;40536;53.194;5.728;2022-12-29T00:57:06;400.67;;;381.15;;
54641;SDS011;40536;53.194;5.728;2022-12-29T00:59:37;423.15;;;403.48;;
54641;SDS011;40536;53.194;5.728;2022-12-29T01:02:21;332.38;;;316.75;;
54641;SDS011;40536;53.194;5.728;2022-12-29T01:04:47;398.30;;;379.65;;
54641;SDS011;40536;53.194;5.728;2022-12-29T01:07:13;409.08;;;389.92;;
54641;SDS011;40536;53.194;5.728;2022-12-29T01:09:41;320.92;;;306.30;;
54641;SDS011;40536;53.194;5.728;2022-12-29T01:12:25;368.83;;;351.98;;
54641;SDS011;40536;53.194;5.728;2022-12-29T01:15:09;367.55;;;350.80;;
54641;SDS011;40536;53.194;5.728;2022-12-29T01:17:36;311.77;;;298.10;;
54641;SDS011;40536;53.194;5.728;2022-12-29T01:20:02;305.40;;;291.90;;
54641;SDS011;40536;53.194;5.728;2022-12-29T01:22:31;365.65;;;347.88;;
54641;SDS011;40536;53.194;5.728;2022-12-29T01:24:59;417.88;;;397.45;;
54641;SDS011;40536;53.194;5.728;2022-12-29T01:27:28;401.77;;;383.25;;
54641;SDS011;40536;53.194;5.728;2022-12-29T01:30:02;405.23;;;386.45;;
54641;SDS011;40536;53.194;5.728;2022-12-29T01:32:39;406.63;;;387.85;;
54641;SDS011;40536;53.194;5.728;2022-12-29T01:35:05;528.40;;;500.95;;
54641;SDS011;40536;53.194;5.728;2022-12-29T01:37:47;464.02;;;441.58;;
54641;SDS011;40536;53.194;5.728;2022-12-29T01:40:42;448.15;;;425.85;;
54641;SDS011;40536;53.194;5.728;2022-12-29T01:43:16;490.00;;;466.63;;
54641;SDS011;40536;53.194;5.728;2022-12-29T01:46:07;443.58;;;422.38;;
54641;SDS011;40536;53.194;5.728;2022-12-29T01:48:49;467.25;;;445.60;;
54641;SDS011;40536;53.194;5.728;2022-12-29T01:51:19;428.40;;;407.80;;
54641;SDS011;40536;53.194;5.728;2022-12-29T01:53:48;492.95;;;468.27;;
54641;SDS011;40536;53.194;5.728;2022-12-29T01:56:17;390.55;;;371.88;;
54641;SDS011;40536;53.194;5.728;2022-12-29T01:58:45;477.10;;;453.60;;
54641;SDS011;40536;53.194;5.728;2022-12-29T02:01:14;451.50;;;430.58;;
54641;SDS011;40536;53.194;5.728;2022-12-29T02:03:42;563.97;;;534.17;;
54641;SDS011;40536;53.194;5.728;2022-12-29T02:09:01;526.97;;;499.45;;
54641;SDS011;40536;53.194;5.728;2022-12-29T02:11:29;538.35;;;511.17;;
54641;SDS011;40536;53.194;5.728;2022-12-29T02:13:56;457.90;;;435.08;;
54641;SDS011;40536;53.194;5.728;2022-12-29T02:22:01;555.53;;;526.85;;
54641;SDS011;40536;53.194;5.728;2022-12-29T02:33:21;532.90;;;504.30;;
54641;SDS011;40536;53.194;5.728;2022-12-29T02:35:52;526.28;;;496.83;;
54641;SDS011;40536;53.194;5.728;2022-12-29T02:41:39;419.33;;;400.33;;
54641;SDS011;40536;53.194;5.728;2022-12-29T02:44:24;472.23;;;450.17;;
54641;SDS011;40536;53.194;5.728;2022-12-29T02:46:54;509.67;;;483.02;;
54641;SDS011;40536;53.194;5.728;2022-12-29T02:52:07;598.22;;;558.38;;
54641;SDS011;40536;53.194;5.728;2022-12-29T02:54:40;389.25;;;370.63;;
54641;SDS011;40536;53.194;5.728;2022-12-29T02:57:14;448.02;;;427.20;;
54641;SDS011;40536;53.194;5.728;2022-12-29T02:59:47;457.00;;;435.70;;
54641;SDS011;40536;53.194;5.728;2022-12-29T03:07:48;364.38;;;348.50;;
54641;SDS011;40536;53.194;5.728;2022-12-29T03:10:41;541.08;;;512.05;;
54641;SDS011;40536;53.194;5.728;2022-12-29T03:13:44;541.78;;;513.13;;
54641;SDS011;40536;53.194;5.728;2022-12-29T03:16:46;517.17;;;490.02;;
54641;SDS011;40536;53.194;5.728;2022-12-29T03:19:21;532.63;;;501.92;;
54641;SDS011;40536;53.194;5.728;2022-12-29T03:24:41;314.40;;;299.17;;
54641;SDS011;40536;53.194;5.728;2022-12-29T03:27:10;206.50;;;196.95;;
54641;SDS011;40536;53.194;5.728;2022-12-29T03:29:44;438.33;;;405.40;;
54641;SDS011;40536;53.194;5.728;2022-12-29T03:32:18;269.20;;;257.13;;
54641;SDS011;40536;53.194;5.728;2022-12-29T03:34:47;422.35;;;398.88;;
54641;SDS011;40536;53.194;5.728;2022-12-29T03:37:16;325.75;;;310.33;;
54641;SDS011;40536;53.194;5.728;2022-12-29T03:39:45;332.60;;;314.13;;
54641;SDS011;40536;53.194;5.728;2022-12-29T03:42:12;308.45;;;294.13;;
54641;SDS011;40536;53.194;5.728;2022-12-29T03:44:41;356.35;;;337.70;;
54641;SDS011;40536;53.194;5.728;2022-12-29T03:47:07;298.63;;;285.10;;
54641;SDS011;40536;53.194;5.728;2022-12-29T03:49:36;295.80;;;281.27;;
54641;SDS011;40536;53.194;5.728;2022-12-29T03:52:01;243.32;;;232.20;;
54641;SDS011;40536;53.194;5.728;2022-12-29T03:54:29;261.25;;;247.95;;
54641;SDS011;40536;53.194;5.728;2022-12-29T03:56:55;232.52;;;221.40;;
54641;SDS011;40536;53.194;5.728;2022-12-29T03:59:20;262.90;;;250.63;;
54641;SDS011;40536;53.194;5.728;2022-12-29T04:01:46;248.70;;;237.13;;
54641;SDS011;40536;53.194;5.728;2022-12-29T04:04:12;209.02;;;198.20;;
54641;SDS011;40536;53.194;5.728;2022-12-29T04:06:38;160.07;;;152.77;;
54641;SDS011;40536;53.194;5.728;2022-12-29T04:09:04;281.52;;;262.85;;
54641;SDS011;40536;53.194;5.728;2022-12-29T04:11:30;123.13;;;116.82;;
54641;SDS011;40536;53.194;5.728;2022-12-29T04:13:56;204.75;;;193.73;;
54641;SDS011;40536;53.194;5.728;2022-12-29T04:16:21;224.60;;;204.73;;
54641;SDS011;40536;53.194;5.728;2022-12-29T04:18:47;83.68;;;78.90;;
54641;SDS011;40536;53.194;5.728;2022-12-29T04:21:13;177.75;;;168.15;;
54641;SDS011;40536;53.194;5.728;2022-12-29T04:23:39;145.25;;;136.95;;
54641;SDS011;40536;53.194;5.728;2022-12-29T04:26:05;192.13;;;180.20;;
54641;SDS011;40536;53.194;5.728;2022-12-29T04:28:32;91.20;;;85.35;;
54641;SDS011;40536;53.194;5.728;2022-12-29T04:30:58;148.25;;;138.85;;
54641;SDS011;40536;53.194;5.728;2022-12-29T04:33:24;109.63;;;103.07;;
54641;SDS011;40536;53.194;5.728;2022-12-29T04:35:50;128.20;;;120.22;;
54641;SDS011;40536;53.194;5.728;2022-12-29T04:38:18;107.63;;;100.85;;
54641;SDS011;40536;53.194;5.728;2022-12-29T04:40:44;266.33;;;246.75;;
54641;SDS011;40536;53.194;5.728;2022-12-29T04:43:10;162.80;;;153.80;;
54641;SDS011;40536;53.194;5.728;2022-12-29T04:45:36;202.05;;;189.35;;
54641;SDS011;40536;53.194;5.728;2022-12-29T04:48:02;279.30;;;261.05;;
54641;SDS011;40536;53.194;5.728;2022-12-29T04:50:28;161.02;;;151.93;;
54641;SDS011;40536;53.194;5.728;2022-12-29T04:52:54;414.67;;;383.17;;
54641;SDS011;40536;53.194;5.728;2022-12-29T04:55:19;213.15;;;201.15;;
54641;SDS011;40536;53.194;5.728;2022-12-29T04:57:45;188.50;;;177.50;;
54641;SDS011;40536;53.194;5.728;2022-12-29T05:00:11;115.30;;;108.10;;
54641;SDS011;40536;53.194;5.728;2022-12-29T05:02:37;155.38;;;145.82;;
54641;SDS011;40536;53.194;5.728;2022-12-29T05:05:03;167.82;;;157.43;;
54641;SDS011;40536;53.194;5.728;2022-12-29T05:07:30;170.75;;;162.00;;
54641;SDS011;40536;53.194;5.728;2022-12-29T05:09:58;171.07;;;161.13;;
54641;SDS011;40536;53.194;5.728;2022-12-29T05:12:24;185.07;;;173.63;;
54641;SDS011;40536;53.194;5.728;2022-12-29T05:14:49;132.95;;;124.82;;
54641;SDS011;40536;53.194;5.728;2022-12-29T05:17:15;177.70;;;167.93;;
54641;SDS011;40536;53.194;5.728;2022-12-29T05:19:40;208.57;;;197.43;;
54641;SDS011;40536;53.194;5.728;2022-12-29T05:22:06;142.18;;;133.18;;
54641;SDS011;40536;53.194;5.728;2022-12-29T05:24:32;168.20;;;158.93;;
54641;SDS011;40536;53.194;5.728;2022-12-29T05:26:57;156.63;;;146.65;;
54641;SDS011;40536;53.194;5.728;2022-12-29T05:29:23;118.95;;;111.70;;
54641;SDS011;40536;53.194;5.728;2022-12-29T05:31:49;156.48;;;147.38;;
54641;SDS011;40536;53.194;5.728;2022-12-29T05:34:14;241.65;;;222.60;;
54641;SDS011;40536;53.194;5.728;2022-12-29T05:36:40;110.30;;;104.10;;
54641;SDS011;40536;53.194;5.728;2022-12-29T05:39:06;88.78;;;83.25;;
54641;SDS011;40536;53.194;5.728;2022-12-29T05:41:33;159.80;;;148.93;;
54641;SDS011;40536;53.194;5.728;2022-12-29T05:43:59;204.77;;;190.82;;
54641;SDS011;40536;53.194;5.728;2022-12-29T05:46:25;143.52;;;134.32;;
54641;SDS011;40536;53.194;5.728;2022-12-29T05:48:51;86.93;;;81.60;;
54641;SDS011;40536;53.194;5.728;2022-12-29T05:51:16;259.50;;;239.40;;
54641;SDS011;40536;53.194;5.728;2022-12-29T05:53:42;52.30;;;48.10;;
54641;SDS011;40536;53.194;5.728;2022-12-29T05:56:07;167.80;;;156.45;;
54641;SDS011;40536;53.194;5.728;2022-12-29T05:58:33;78.07;;;72.43;;
54641;SDS011;40536;53.194;5.728;2022-12-29T06:00:59;83.97;;;77.53;;
54641;SDS011;40536;53.194;5.728;2022-12-29T06:03:24;200.50;;;181.57;;
54641;SDS011;40536;53.194;5.728;2022-12-29T06:05:51;89.78;;;82.50;;
54641;SDS011;40536;53.194;5.728;2022-12-29T06:08:16;67.95;;;61.88;;
54641;SDS011;40536;53.194;5.728;2022-12-29T06:10:42;107.15;;;99.85;;
54641;SDS011;40536;53.194;5.728;2022-12-29T06:13:08;83.13;;;76.85;;
54641;SDS011;40536;53.194;5.728;2022-12-29T06:15:34;43.28;;;38.92;;
54641;SDS011;40536;53.194;5.728;2022-12-29T06:18:00;80.32;;;74.35;;
54641;SDS011;40536;53.194;5.728;2022-12-29T06:20:26;46.13;;;38.33;;
54641;SDS011;40536;53.194;5.728;2022-12-29T06:22:52;64.68;;;58.35;;
54641;SDS011;40536;53.194;5.728;2022-12-29T06:25:17;102.25;;;94.80;;
54641;SDS011;40536;53.194;5.728;2022-12-29T06:27:43;147.45;;;136.77;;
54641;SDS011;40536;53.194;5.728;2022-12-29T06:30:09;176.95;;;166.35;;
54641;SDS011;40536;53.194;5.728;2022-12-29T06:32:36;89.45;;;81.88;;
54641;SDS011;40536;53.194;5.728;2022-12-29T06:35:02;123.95;;;115.63;;
54641;SDS011;40536;53.194;5.728;2022-12-29T06:37:28;275.15;;;253.35;;
54641;SDS011;40536;53.194;5.728;2022-12-29T06:39:54;229.07;;;213.43;;
54641;SDS011;40536;53.194;5.728;2022-12-29T06:42:20;61.90;;;55.97;;
54641;SDS011;40536;53.194;5.728;2022-12-29T06:44:45;137.65;;;127.15;;
54641;SDS011;40536;53.194;5.728;2022-12-29T06:47:11;91.55;;;85.28;;
54641;SDS011;40536;53.194;5.728;2022-12-29T06:49:37;135.10;;;126.20;;
54641;SDS011;40536;53.194;5.728;2022-12-29T06:52:02;88.57;;;81.65;;
54641;SDS011;40536;53.194;5.728;2022-12-29T06:54:32;160.82;;;147.43;;
54641;SDS011;40536;53.194;5.728;2022-12-29T06:56:57;72.93;;;67.68;;
54641;SDS011;40536;53.194;5.728;2022-12-29T06:59:23;234.80;;;218.52;;
54641;SDS011;40536;53.194;5.728;2022-12-29T07:01:49;96.68;;;89.15;;
54641;SDS011;40536;53.194;5.728;2022-12-29T07:04:15;145.55;;;134.43;;
54641;SDS011;40536;53.194;5.728;2022-12-29T07:06:41;72.60;;;66.78;;
54641;SDS011;40536;53.194;5.728;2022-12-29T07:09:07;109.10;;;101.95;;
54641;SDS011;40536;53.194;5.728;2022-12-29T07:11:33;51.45;;;46.65;;
54641;SDS011;40536;53.194;5.728;2022-12-29T07:13:59;94.38;;;86.30;;
54641;SDS011;40536;53.194;5.728;2022-12-29T07:16:25;117.55;;;109.57;;
54641;SDS011;40536;53.194;5.728;2022-12-29T07:18:51;50.15;;;44.63;;
54641;SDS011;40536;53.194;5.728;2022-12-29T07:21:17;110.22;;;102.90;;
54641;SDS011;40536;53.194;5.728;2022-12-29T07:23:43;62.13;;;56.33;;
54641;SDS011;40536;53.194;5.728;2022-12-29T07:26:09;245.13;;;229.45;;
54641;SDS011;40536;53.194;5.728;2022-12-29T07:28:37;76.57;;;69.68;;
54641;SDS011;40536;53.194;5.728;2022-12-29T07:31:03;107.63;;;99.15;;
54641;SDS011;40536;53.194;5.728;2022-12-29T07:33:30;127.72;;;118.68;;
54641;SDS011;40536;53.194;5.728;2022-12-29T07:35:56;196.20;;;182.95;;
54641;SDS011;40536;53.194;5.728;2022-12-29T07:38:23;42.05;;;37.63;;
54641;SDS011;40536;53.194;5.728;2022-12-29T07:40:51;254.80;;;236.55;;
54641;SDS011;40536;53.194;5.728;2022-12-29T07:43:21;91.10;;;84.57;;
54641;SDS011;40536;53.194;5.728;2022-12-29T07:45:50;264.20;;;218.27;;
54641;SDS011;40536;53.194;5.728;2022-12-29T07:48:18;31.95;;;28.85;;
54641;SDS011;40536;53.194;5.728;2022-12-29T07:50:54;82.03;;;75.55;;
54641;SDS011;40536;53.194;5.728;2022-12-29T08:01:18;36.05;;;30.58;;
54641;SDS011;40536;53.194;5.728;2022-12-29T08:07:27;49.08;;;44.47;;
54641;SDS011;40536;53.194;5.728;2022-12-29T08:10:50;59.22;;;53.58;;
54641;SDS011;40536;53.194;5.728;2022-12-29T08:16:54;40.05;;;33.72;;
54641;SDS011;40536;53.194;5.728;2022-12-29T08:19:23;39.97;;;35.67;;
54641;SDS011;40536;53.194;5.728;2022-12-29T08:21:50;66.60;;;60.75;;
54641;SDS011;40536;53.194;5.728;2022-12-29T08:24:20;129.10;;;119.55;;
54641;SDS011;40536;53.194;5.728;2022-12-29T08:26:46;40.67;;;35.70;;
54641;SDS011;40536;53.194;5.728;2022-12-29T08:29:28;45.97;;;39.55;;
54641;SDS011;40536;53.194;5.728;2022-12-29T08:31:54;36.45;;;32.47;;
54641;SDS011;40536;53.194;5.728;2022-12-29T08:34:19;99.47;;;91.57;;
54641;SDS011;40536;53.194;5.728;2022-12-29T08:36:45;73.80;;;66.90;;
54641;SDS011;40536;53.194;5.728;2022-12-29T08:39:11;166.73;;;153.75;;
54641;SDS011;40536;53.194;5.728;2022-12-29T08:41:36;227.30;;;210.93;;
54641;SDS011;40536;53.194;5.728;2022-12-29T08:44:02;65.53;;;59.70;;
54641;SDS011;40536;53.194;5.728;2022-12-29T08:46:31;137.45;;;126.85;;
54641;SDS011;40536;53.194;5.728;2022-12-29T08:48:59;46.80;;;32.22;;
54641;SDS011;40536;53.194;5.728;2022-12-29T08:51:25;72.10;;;65.85;;
54641;SDS011;40536;53.194;5.728;2022-12-29T08:53:51;77.13;;;70.68;;
54641;SDS011;40536;53.194;5.728;2022-12-29T08:56:17;69.90;;;64.18;;
54641;SDS011;40536;53.194;5.728;2022-12-29T08:58:43;47.40;;;42.25;;
54641;SDS011;40536;53.194;5.728;2022-12-29T09:01:12;60.80;;;54.55;;
54641;SDS011;40536;53.194;5.728;2022-12-29T09:07:27;71.88;;;65.15;;
54641;SDS011;40536;53.194;5.728;2022-12-29T09:09:56;107.28;;;97.88;;
54641;SDS011;40536;53.194;5.728;2022-12-29T09:12:21;91.50;;;84.28;;
54641;SDS011;40536;53.194;5.728;2022-12-29T09:14:50;79.13;;;72.15;;
54641;SDS011;40536;53.194;5.728;2022-12-29T09:17:27;87.78;;;80.22;;
54641;SDS011;40536;53.194;5.728;2022-12-29T09:20:20;82.35;;;75.72;;
54641;SDS011;40536;53.194;5.728;2022-12-29T09:22:57;68.88;;;62.60;;
54641;SDS011;40536;53.194;5.728;2022-12-29T09:25:34;170.13;;;157.90;;
54641;SDS011;40536;53.194;5.728;2022-12-29T09:28:00;170.60;;;158.38;;
54641;SDS011;40536;53.194;5.728;2022-12-29T09:30:32;123.25;;;113.97;;
54641;SDS011;40536;53.194;5.728;2022-12-29T09:32:58;95.00;;;88.10;;
54641;SDS011;40536;53.194;5.728;2022-12-29T09:35:30;149.38;;;139.27;;
54641;SDS011;40536;53.194;5.728;2022-12-29T09:38:04;270.50;;;253.93;;
54641;SDS011;40536;53.194;5.728;2022-12-29T09:40:30;201.98;;;189.68;;
54641;SDS011;40536;53.194;5.728;2022-12-29T09:45:44;263.08;;;247.10;;
54641;SDS011;40536;53.194;5.728;2022-12-29T09:48:32;281.17;;;266.65;;
54641;SDS011;40536;53.194;5.728;2022-12-29T09:51:03;336.90;;;318.95;;
54641;SDS011;40536;53.194;5.728;2022-12-29T09:53:36;336.45;;;318.38;;
54641;SDS011;40536;53.194;5.728;2022-12-29T09:56:05;411.33;;;387.48;;
54641;SDS011;40536;53.194;5.728;2022-12-29T10:01:24;359.27;;;340.13;;
54641;SDS011;40536;53.194;5.728;2022-12-29T10:03:56;340.55;;;321.95;;
54641;SDS011;40536;53.194;5.728;2022-12-29T10:08:59;248.50;;;234.90;;
54641;SDS011;40536;53.194;5.728;2022-12-29T10:14:34;326.15;;;307.80;;
54641;SDS011;40536;53.194;5.728;2022-12-29T10:20:10;240.10;;;227.07;;
54641;SDS011;40536;53.194;5.728;2022-12-29T10:25:29;298.00;;;282.05;;
54641;SDS011;40536;53.194;5.728;2022-12-29T10:28:01;241.00;;;228.43;;
54641;SDS011;40536;53.194;5.728;2022-12-29T10:30:32;161.40;;;151.27;;
54641;SDS011;40536;53.194;5.728;2022-12-29T10:33:01;216.68;;;203.60;;
54641;SDS011;40536;53.194;5.728;2022-12-29T10:35:33;117.30;;;109.75;;
54641;SDS011;40536;53.194;5.728;2022-12-29T10:41:28;69.97;;;63.63;;
54641;SDS011;40536;53.194;5.728;2022-12-29T10:43:58;46.53;;;39.28;;
54641;SDS011;40536;53.194;5.728;2022-12-29T10:46:30;55.90;;;51.00;;
54641;SDS011;40536;53.194;5.728;2022-12-29T10:48:59;77.68;;;71.05;;
54641;SDS011;40536;53.194;5.728;2022-12-29T10:51:30;49.72;;;45.28;;
54641;SDS011;40536;53.194;5.728;2022-12-29T10:54:03;49.65;;;45.00;;
54641;SDS011;40536;53.194;5.728;2022-12-29T10:56:32;58.28;;;53.65;;
54641;SDS011;40536;53.194;5.728;2022-12-29T10:59:18;57.33;;;51.88;;
54641;SDS011;40536;53.194;5.728;2022-12-29T11:06:57;28.77;;;25.30;;
54641;SDS011;40536;53.194;5.728;2022-12-29T11:09:25;47.15;;;42.58;;
54641;SDS011;40536;53.194;5.728;2022-12-29T11:11:54;35.05;;;31.50;;
54641;SDS011;40536;53.194;5.728;2022-12-29T11:14:30;46.88;;;42.22;;
54641;SDS011;40536;53.194;5.728;2022-12-29T11:17:00;41.78;;;37.63;;
54641;SDS011;40536;53.194;5.728;2022-12-29T11:19:30;64.07;;;59.03;;
54641;SDS011;40536;53.194;5.728;2022-12-29T11:24:45;83.35;;;77.50;;
54641;SDS011;40536;53.194;5.728;2022-12-29T11:27:17;38.92;;;35.63;;
54641;SDS011;40536;53.194;5.728;2022-12-29T11:29:45;93.05;;;86.55;;
54641;SDS011;40536;53.194;5.728;2022-12-29T11:32:18;68.97;;;64.05;;
54641;SDS011;40536;53.194;5.728;2022-12-29T11:34:46;34.78;;;31.35;;
54641;SDS011;40536;53.194;5.728;2022-12-29T11:37:13;45.97;;;42.40;;
54641;SDS011;40536;53.194;5.728;2022-12-29T11:42:48;42.33;;;39.10;;
54641;SDS011;40536;53.194;5.728;2022-12-29T11:47:45;40.22;;;36.70;;
54641;SDS011;40536;53.194;5.728;2022-12-29T11:50:18;45.22;;;41.22;;
54641;SDS011;40536;53.194;5.728;2022-12-29T11:56:10;32.80;;;29.73;;
54641;SDS011;40536;53.194;5.728;2022-12-29T11:58:41;45.72;;;42.35;;
54641;SDS011;40536;53.194;5.728;2022-12-29T12:01:11;38.28;;;35.33;;
54641;SDS011;40536;53.194;5.728;2022-12-29T12:04:28;67.90;;;63.03;;
54641;SDS011;40536;53.194;5.728;2022-12-29T12:06:34;24.90;;;22.55;;
54641;SDS011;40536;53.194;5.728;2022-12-29T12:09:06;48.78;;;45.08;;
54641;SDS011;40536;53.194;5.728;2022-12-29T12:11:39;25.15;;;21.90;;
54641;SDS011;40536;53.194;5.728;2022-12-29T12:14:12;38.25;;;26.15;;
54641;SDS011;40536;53.194;5.728;2022-12-29T12:16:48;29.95;;;27.60;;
54641;SDS011;40536;53.194;5.728;2022-12-29T12:27:48;43.67;;;40.20;;
54641;SDS011;40536;53.194;5.728;2022-12-29T12:30:22;33.13;;;29.52;;
54641;SDS011;40536;53.194;5.728;2022-12-29T12:38:50;74.88;;;68.95;;
54641;SDS011;40536;53.194;5.728;2022-12-29T12:52:55;37.28;;;34.28;;
54641;SDS011;40536;53.194;5.728;2022-12-29T12:55:30;31.10;;;22.77;;
54641;SDS011;40536;53.194;5.728;2022-12-29T13:01:08;22.55;;;20.27;;
54641;SDS011;40536;53.194;5.728;2022-12-29T13:06:41;23.48;;;21.35;;
54641;SDS011;40536;53.194;5.728;2022-12-29T13:09:29;24.70;;;22.25;;
54641;SDS011;40536;53.194;5.728;2022-12-29T13:14:59;24.60;;;22.45;;
54641;SDS011;40536;53.194;5.728;2022-12-29T13:20:32;23.00;;;20.65;;
54641;SDS011;40536;53.194;5.728;2022-12-29T13:23:02;27.40;;;25.10;;
54641;SDS011;40536;53.194;5.728;2022-12-29T13:28:35;33.03;;;30.38;;
54641;SDS011;40536;53.194;5.728;2022-12-29T13:36:45;27.98;;;25.38;;
54641;SDS011;40536;53.194;5.728;2022-12-29T13:39:19;27.77;;;25.63;;
54641;SDS011;40536;53.194;5.728;2022-12-29T13:41:55;89.95;;;84.43;;
54641;SDS011;40536;53.194;5.728;2022-12-29T13:44:44;104.10;;;97.63;;
54641;SDS011;40536;53.194;5.728;2022-12-29T13:50:03;35.42;;;32.00;;
54641;SDS011;40536;53.194;5.728;2022-12-29T13:55:58;84.95;;;79.50;;
54641;SDS011;40536;53.194;5.728;2022-12-29T13:58:32;38.75;;;35.30;;
54641;SDS011;40536;53.194;5.728;2022-12-29T14:01:20;39.90;;;36.05;;
54641;SDS011;40536;53.194;5.728;2022-12-29T14:03:52;28.48;;;25.92;;
54641;SDS011;40536;53.194;5.728;2022-12-29T14:09:03;47.28;;;43.83;;
54641;SDS011;40536;53.194;5.728;2022-12-29T14:11:32;59.47;;;55.45;;
54641;SDS011;40536;53.194;5.728;2022-12-29T14:14:12;45.17;;;41.83;;
54641;SDS011;40536;53.194;5.728;2022-12-29T14:16:45;34.05;;;31.23;;
54641;SDS011;40536;53.194;5.728;2022-12-29T14:19:16;78.75;;;73.97;;
54641;SDS011;40536;53.194;5.728;2022-12-29T14:21:56;36.83;;;33.75;;
54641;SDS011;40536;53.194;5.728;2022-12-29T14:27:42;27.42;;;25.02;;
54641;SDS011;40536;53.194;5.728;2022-12-29T14:29:50;28.23;;;25.38;;
54641;SDS011;40536;53.194;5.728;2022-12-29T14:34:55;29.85;;;27.35;;
54641;SDS011;40536;53.194;5.728;2022-12-29T14:37:23;25.90;;;23.52;;
54641;SDS011;40536;53.194;5.728;2022-12-29T14:42:51;29.80;;;26.77;;
54641;SDS011;40536;53.194;5.728;2022-12-29T14:47:49;30.13;;;27.73;;
54641;SDS011;40536;53.194;5.728;2022-12-29T14:50:23;21.60;;;19.63;;
54641;SDS011;40536;53.194;5.728;2022-12-29T14:53:02;29.35;;;26.35;;
54641;SDS011;40536;53.194;5.728;2022-12-29T14:58:22;22.15;;;19.90;;
54641;SDS011;40536;53.194;5.728;2022-12-29T15:01:02;26.02;;;23.73;;
54641;SDS011;40536;53.194;5.728;2022-12-29T15:03:29;24.05;;;22.05;;
54641;SDS011;40536;53.194;5.728;2022-12-29T15:06:30;41.45;;;38.45;;
54641;SDS011;40536;53.194;5.728;2022-12-29T15:08:53;29.42;;;27.02;;
54641;SDS011;40536;53.194;5.728;2022-12-29T15:11:51;31.63;;;28.95;;
54641;SDS011;40536;53.194;5.728;2022-12-29T15:14:57;42.95;;;39.47;;
54641;SDS011;40536;53.194;5.728;2022-12-29T15:19:52;32.92;;;30.65;;
54641;SDS011;40536;53.194;5.728;2022-12-29T15:22:18;38.67;;;35.40;;
54641;SDS011;40536;53.194;5.728;2022-12-29T15:24:45;38.58;;;35.42;;
54641;SDS011;40536;53.194;5.728;2022-12-29T15:27:14;32.35;;;29.33;;
54641;SDS011;40536;53.194;5.728;2022-12-29T15:29:44;32.28;;;29.08;;
54641;SDS011;40536;53.194;5.728;2022-12-29T15:32:18;30.25;;;20.48;;
54641;SDS011;40536;53.194;5.728;2022-12-29T15:34:47;23.13;;;18.65;;
54641;SDS011;40536;53.194;5.728;2022-12-29T15:37:18;27.05;;;22.80;;
54641;SDS011;40536;53.194;5.728;2022-12-29T15:39:49;18.27;;;16.40;;
54641;SDS011;40536;53.194;5.728;2022-12-29T15:44:52;35.65;;;32.28;;
54641;SDS011;40536;53.194;5.728;2022-12-29T15:47:20;67.32;;;63.03;;
54641;SDS011;40536;53.194;5.728;2022-12-29T15:49:59;21.90;;;19.80;;
54641;SDS011;40536;53.194;5.728;2022-12-29T15:52:31;22.57;;;20.77;;
54641;SDS011;40536;53.194;5.728;2022-12-29T15:54:58;45.42;;;42.55;;
54641;SDS011;40536;53.194;5.728;2022-12-29T15:59:52;24.48;;;22.42;;
54641;SDS011;40536;53.194;5.728;2022-12-29T16:02:19;35.58;;;33.08;;
54641;SDS011;40536;53.194;5.728;2022-12-29T16:04:47;27.52;;;25.63;;
54641;SDS011;40536;53.194;5.728;2022-12-29T16:07:47;35.92;;;32.95;;
54641;SDS011;40536;53.194;5.728;2022-12-29T16:10:21;30.92;;;28.95;;
54641;SDS011;40536;53.194;5.728;2022-12-29T16:13:05;28.95;;;26.75;;
54641;SDS011;40536;53.194;5.728;2022-12-29T16:15:40;26.80;;;24.50;;
54641;SDS011;40536;53.194;5.728;2022-12-29T16:18:28;27.50;;;24.52;;
54641;SDS011;40536;53.194;5.728;2022-12-29T16:20:59;26.08;;;23.83;;
54641;SDS011;40536;53.194;5.728;2022-12-29T16:23:26;25.88;;;23.80;;
54641;SDS011;40536;53.194;5.728;2022-12-29T16:25:54;28.30;;;25.60;;
54641;SDS011;40536;53.194;5.728;2022-12-29T16:31:34;28.30;;;26.20;;
54641;SDS011;40536;53.194;5.728;2022-12-29T16:37:03;24.05;;;21.90;;
54641;SDS011;40536;53.194;5.728;2022-12-29T16:39:39;26.42;;;24.25;;
54641;SDS011;40536;53.194;5.728;2022-12-29T16:50:35;31.52;;;29.10;;
54641;SDS011;40536;53.194;5.728;2022-12-29T16:53:03;26.20;;;23.38;;
54641;SDS011;40536;53.194;5.728;2022-12-29T16:55:30;23.92;;;21.40;;
54641;SDS011;40536;53.194;5.728;2022-12-29T16:57:56;30.98;;;28.17;;
54641;SDS011;40536;53.194;5.728;2022-12-29T17:00:24;45.92;;;41.80;;
54641;SDS011;40536;53.194;5.728;2022-12-29T17:02:53;43.90;;;39.92;;
54641;SDS011;40536;53.194;5.728;2022-12-29T17:05:21;39.28;;;34.45;;
54641;SDS011;40536;53.194;5.728;2022-12-29T17:07:47;45.75;;;42.05;;
54641;SDS011;40536;53.194;5.728;2022-12-29T17:10:13;38.13;;;35.33;;
54641;SDS011;40536;53.194;5.728;2022-12-29T17:12:40;77.78;;;73.03;;
54641;SDS011;40536;53.194;5.728;2022-12-29T17:15:13;56.10;;;51.78;;
54641;SDS011;40536;53.194;5.728;2022-12-29T17:17:51;35.53;;;30.10;;
54641;SDS011;40536;53.194;5.728;2022-12-29T17:20:21;34.22;;;31.35;;
54641;SDS011;40536;53.194;5.728;2022-12-29T17:22:48;36.35;;;32.75;;
54641;SDS011;40536;53.194;5.728;2022-12-29T17:25:18;38.38;;;35.20;;
54641;SDS011;40536;53.194;5.728;2022-12-29T17:27:47;41.35;;;37.30;;
54641;SDS011;40536;53.194;5.728;2022-12-29T17:30:19;25.63;;;21.92;;